createdAt,value
2018-06-04T00:00:24.169Z,0.00
2018-06-04T00:01:24.138Z,0.00
2018-06-04T00:02:24.128Z,0.00
2018-06-04T00:03:24.074Z,0.00
2018-06-04T00:04:24.030Z,0.00
2018-06-04T00:05:24.005Z,0.00
2018-06-04T00:06:23.973Z,0.00
2018-06-04T00:07:23.921Z,0.00
2018-06-04T00:08:23.906Z,0.00
2018-06-04T00:09:23.864Z,0.00
2018-06-04T00:10:23.831Z,0.00
2018-06-04T00:11:23.797Z,0.00
2018-06-04T00:12:23.759Z,0.00
2018-06-04T00:13:23.917Z,0.00
2018-06-04T00:14:23.686Z,0.00
2018-06-04T00:15:23.677Z,0.00
2018-06-04T00:16:23.620Z,0.00
2018-06-04T00:17:23.581Z,0.00
2018-06-04T00:18:23.551Z,0.00
2018-06-04T00:19:23.491Z,0.00
2018-06-04T00:20:23.483Z,0.00
2018-06-04T00:21:23.433Z,0.00
2018-06-04T00:22:23.408Z,0.00
2018-06-04T00:23:23.372Z,0.00
2018-06-04T00:24:23.318Z,0.00
2018-06-04T00:25:23.298Z,0.00
2018-06-04T00:26:23.257Z,0.00
2018-06-04T00:27:23.255Z,0.00
2018-06-04T00:28:23.207Z,0.00
2018-06-04T00:29:23.228Z,0.00
2018-06-04T00:30:23.117Z,0.00
2018-06-04T00:31:23.078Z,0.00
2018-06-04T00:32:23.094Z,0.00
2018-06-04T00:33:23.041Z,0.00
2018-06-04T00:34:22.988Z,0.00
2018-06-04T00:35:22.951Z,0.00
2018-06-04T00:36:23.397Z,0.00
2018-06-04T00:37:22.856Z,0.00
2018-06-04T00:38:22.857Z,0.00
2018-06-04T00:39:23.397Z,0.00
2018-06-04T00:40:22.794Z,0.00
2018-06-04T00:41:22.720Z,0.00
2018-06-04T00:42:22.708Z,0.00
2018-06-04T00:43:22.765Z,0.00
2018-06-04T00:44:22.614Z,0.00
2018-06-04T00:45:23.396Z,0.00
2018-06-04T00:46:22.589Z,0.00
2018-06-04T00:47:22.517Z,0.00
2018-06-04T00:48:22.480Z,0.00
2018-06-04T00:49:22.476Z,0.00
2018-06-04T00:50:22.427Z,0.00
2018-06-04T00:51:22.422Z,0.00
2018-06-04T00:52:22.379Z,0.00
2018-06-04T00:53:22.297Z,0.00
2018-06-04T00:54:22.275Z,0.00
2018-06-04T00:55:22.232Z,0.00
2018-06-04T00:56:22.203Z,0.00
2018-06-04T00:57:22.160Z,0.00
2018-06-04T00:58:22.121Z,0.00
2018-06-04T00:59:22.903Z,0.00
2018-06-04T01:00:22.048Z,0.00
2018-06-04T01:01:22.027Z,0.00
2018-06-04T01:02:21.997Z,0.00
2018-06-04T01:03:21.942Z,0.00
2018-06-04T01:04:21.942Z,0.00
2018-06-04T01:05:21.864Z,0.00
2018-06-04T01:06:21.826Z,0.00
2018-06-04T01:07:21.834Z,0.00
2018-06-04T01:08:21.768Z,0.00
2018-06-04T01:09:21.728Z,0.00
2018-06-04T01:10:21.737Z,0.00
2018-06-04T01:11:22.408Z,0.00
2018-06-04T01:12:21.618Z,0.00
2018-06-04T01:13:21.600Z,0.00
2018-06-04T01:14:21.570Z,0.00
2018-06-04T01:15:21.528Z,0.00
2018-06-04T01:16:21.476Z,0.00
2018-06-04T01:17:21.445Z,0.00
2018-06-04T01:18:21.406Z,0.00
2018-06-04T01:19:21.488Z,0.00
2018-06-04T01:20:21.383Z,0.00
2018-06-04T01:21:21.333Z,0.00
2018-06-04T01:22:21.337Z,0.00
2018-06-04T01:23:21.289Z,0.00
2018-06-04T01:24:21.264Z,0.00
2018-06-04T01:25:21.179Z,0.00
2018-06-04T01:26:21.149Z,0.00
2018-06-04T01:27:21.102Z,0.00
2018-06-04T01:28:21.057Z,0.00
2018-06-04T01:29:21.002Z,0.00
2018-06-04T01:30:20.976Z,0.00
2018-06-04T01:31:20.952Z,0.00
2018-06-04T01:32:20.924Z,0.00
2018-06-04T01:33:20.876Z,0.00
2018-06-04T01:34:20.863Z,0.00
2018-06-04T01:35:21.415Z,0.00
2018-06-04T01:36:20.754Z,0.00
2018-06-04T01:37:20.797Z,0.00
2018-06-04T01:38:20.718Z,0.00
2018-06-04T01:39:20.682Z,0.00
2018-06-04T01:40:20.653Z,0.00
2018-06-04T01:41:20.583Z,0.00
2018-06-04T01:42:21.410Z,0.00
2018-06-04T01:43:20.523Z,0.00
2018-06-04T01:44:20.489Z,0.00
2018-06-04T01:45:20.461Z,0.00
2018-06-04T01:46:20.447Z,0.00
2018-06-04T01:47:20.375Z,0.00
2018-06-04T01:48:20.362Z,0.00
2018-06-04T01:49:20.309Z,0.00
2018-06-04T01:50:20.269Z,0.00
2018-06-04T01:51:20.223Z,0.00
2018-06-04T01:52:20.204Z,0.00
2018-06-04T01:53:20.173Z,0.00
2018-06-04T01:54:20.111Z,0.00
2018-06-04T01:55:20.117Z,0.00
2018-06-04T01:56:20.074Z,0.00
2018-06-04T01:57:20.019Z,0.00
2018-06-04T01:58:19.981Z,0.00
2018-06-04T01:59:19.947Z,0.00
2018-06-04T02:00:19.931Z,0.00
2018-06-04T02:01:19.856Z,0.00
2018-06-04T02:02:19.846Z,0.00
2018-06-04T02:03:19.786Z,0.00
2018-06-04T02:04:19.798Z,0.00
2018-06-04T02:05:20.418Z,0.00
2018-06-04T02:06:19.708Z,0.00
2018-06-04T02:07:20.422Z,0.00
2018-06-04T02:08:19.623Z,0.00
2018-06-04T02:09:19.600Z,0.00
2018-06-04T02:10:19.546Z,0.00
2018-06-04T02:11:19.530Z,0.00
2018-06-04T02:12:19.466Z,0.00
2018-06-04T02:13:19.467Z,4.00
2018-06-04T02:14:19.432Z,4.00
2018-06-04T02:15:19.393Z,4.00
2018-06-04T02:16:19.332Z,0.00
2018-06-04T02:17:19.304Z,0.00
2018-06-04T02:18:19.281Z,4.00
2018-06-04T02:19:19.268Z,4.00
2018-06-04T02:20:19.923Z,4.00
2018-06-04T02:21:19.193Z,4.00
2018-06-04T02:22:19.109Z,4.00
2018-06-04T02:23:19.088Z,4.00
2018-06-04T02:24:19.084Z,8.00
2018-06-04T02:25:19.021Z,8.00
2018-06-04T02:26:19.013Z,8.00
2018-06-04T02:27:18.966Z,12.00
2018-06-04T02:28:18.891Z,12.00
2018-06-04T02:29:18.851Z,12.00
2018-06-04T02:30:18.858Z,16.00
2018-06-04T02:31:18.809Z,16.00
2018-06-04T02:32:18.752Z,16.00
2018-06-04T02:33:18.713Z,20.00
2018-06-04T02:34:18.715Z,24.00
2018-06-04T02:35:18.640Z,24.00
2018-06-04T02:36:18.629Z,28.00
2018-06-04T02:37:18.592Z,28.00
2018-06-04T02:38:18.556Z,36.00
2018-06-04T02:39:18.495Z,40.00
2018-06-04T02:40:18.542Z,44.00
2018-06-04T02:41:18.434Z,52.00
2018-06-04T02:42:18.434Z,60.00
2018-06-04T02:43:18.469Z,68.00
2018-06-04T02:44:18.330Z,76.00
2018-06-04T02:45:18.319Z,88.00
2018-06-04T02:46:18.255Z,100.00
2018-06-04T02:47:18.246Z,112.00
2018-06-04T02:48:18.202Z,124.00
2018-06-04T02:49:18.155Z,136.00
2018-06-04T02:50:18.164Z,148.00
2018-06-04T02:51:18.087Z,164.00
2018-06-04T02:52:18.039Z,184.00
2018-06-04T02:53:18.028Z,200.00
2018-06-04T02:54:17.984Z,220.00
2018-06-04T02:55:17.917Z,244.00
2018-06-04T02:56:17.929Z,268.00
2018-06-04T02:57:17.897Z,292.00
2018-06-04T02:58:17.829Z,316.00
2018-06-04T02:59:17.807Z,344.00
2018-06-04T03:00:18.444Z,372.00
2018-06-04T03:01:17.799Z,404.00
2018-06-04T03:02:18.441Z,436.00
2018-06-04T03:03:17.638Z,468.00
2018-06-04T03:04:17.604Z,496.00
2018-06-04T03:05:17.565Z,524.00
2018-06-04T03:06:17.545Z,552.00
2018-06-04T03:07:17.515Z,584.00
2018-06-04T03:08:17.478Z,624.00
2018-06-04T03:09:17.422Z,672.00
2018-06-04T03:10:17.417Z,720.00
2018-06-04T03:11:17.361Z,768.00
2018-06-04T03:12:17.315Z,820.00
2018-06-04T03:13:17.280Z,876.00
2018-06-04T03:14:17.259Z,936.00
2018-06-04T03:15:17.210Z,1004.00
2018-06-04T03:16:17.190Z,1088.00
2018-06-04T03:17:17.209Z,1172.00
2018-06-04T03:18:17.115Z,1260.00
2018-06-04T03:19:17.091Z,1352.00
2018-06-04T03:20:17.042Z,1436.00
2018-06-04T03:21:17.063Z,1528.00
2018-06-04T03:22:16.958Z,1632.00
2018-06-04T03:23:16.923Z,1744.00
2018-06-04T03:24:16.892Z,1844.00
2018-06-04T03:25:16.864Z,1956.00
2018-06-04T03:26:16.822Z,2072.00
2018-06-04T03:27:17.440Z,2184.00
2018-06-04T03:28:16.840Z,2292.00
2018-06-04T03:29:16.745Z,2412.00
2018-06-04T03:30:16.698Z,2536.00
2018-06-04T03:31:16.647Z,2668.00
2018-06-04T03:32:16.621Z,2824.00
2018-06-04T03:33:16.641Z,2992.00
2018-06-04T03:34:16.552Z,3208.00
2018-06-04T03:35:16.504Z,3424.00
2018-06-04T03:36:16.480Z,3620.00
2018-06-04T03:37:16.455Z,3796.00
2018-06-04T03:38:16.447Z,3956.00
2018-06-04T03:39:16.374Z,4132.00
2018-06-04T03:40:16.332Z,4300.00
2018-06-04T03:41:16.310Z,4504.00
2018-06-04T03:42:16.262Z,4728.00
2018-06-04T03:43:16.211Z,4968.00
2018-06-04T03:44:18.478Z,5168.00
2018-06-04T03:45:16.192Z,5340.00
2018-06-04T03:47:09.605Z,5652.00
2018-06-04T03:48:09.209Z,5864.00
2018-06-04T03:50:02.494Z,6208.00
2018-06-04T03:51:02.313Z,6368.00
2018-06-04T03:52:55.670Z,6560.00
2018-06-04T03:53:55.308Z,6664.00
2018-06-04T03:55:48.425Z,6928.00
2018-06-04T03:56:48.436Z,7112.00
2018-06-04T03:58:41.609Z,7412.00
2018-06-04T03:59:41.356Z,7576.00
2018-06-04T04:01:34.693Z,8184.00
2018-06-04T04:02:35.269Z,8768.00
2018-06-04T04:03:34.338Z,9480.00
2018-06-04T04:04:34.375Z,10036.00
2018-06-04T04:05:34.306Z,10364.00
2018-06-04T04:06:34.232Z,10688.00
2018-06-04T04:07:34.228Z,10984.00
2018-06-04T04:08:34.189Z,11312.00
2018-06-04T04:09:34.142Z,11724.00
2018-06-04T04:10:34.094Z,12192.00
2018-06-04T04:11:34.267Z,12756.00
2018-06-04T04:12:34.039Z,13348.00
2018-06-04T04:13:33.987Z,13884.00
2018-06-04T04:14:33.948Z,14304.00
2018-06-04T04:15:33.935Z,14336.00
2018-06-04T04:16:33.882Z,14336.00
2018-06-04T04:17:33.866Z,14592.00
2018-06-04T04:18:33.820Z,15168.00
2018-06-04T04:19:33.818Z,15904.00
2018-06-04T04:20:33.788Z,16448.00
2018-06-04T04:21:33.725Z,16928.00
2018-06-04T04:22:33.681Z,17088.00
2018-06-04T04:23:33.674Z,17376.00
2018-06-04T04:24:33.649Z,17792.00
2018-06-04T04:25:33.615Z,18176.00
2018-06-04T04:26:33.603Z,18048.00
2018-06-04T04:27:33.547Z,17888.00
2018-06-04T04:28:33.501Z,17408.00
2018-06-04T04:29:33.461Z,17312.00
2018-06-04T04:30:33.445Z,16576.00
2018-06-04T04:31:33.386Z,15264.00
2018-06-04T04:32:33.387Z,13320.00
2018-06-04T04:33:33.366Z,12756.00
2018-06-04T04:34:33.311Z,12824.00
2018-06-04T04:35:33.309Z,12788.00
2018-06-04T04:36:33.234Z,12568.00
2018-06-04T04:37:33.266Z,12396.00
2018-06-04T04:38:33.180Z,12584.00
2018-06-04T04:39:33.185Z,12124.00
2018-06-04T04:40:33.202Z,12044.00
2018-06-04T04:41:33.097Z,17344.00
2018-06-04T04:42:33.102Z,11316.00
2018-06-04T04:43:33.073Z,11296.00
2018-06-04T04:44:32.997Z,11580.00
2018-06-04T04:45:32.965Z,12328.00
2018-06-04T04:46:32.909Z,12892.00
2018-06-04T04:47:32.918Z,13828.00
2018-06-04T04:48:32.888Z,14216.00
2018-06-04T04:49:32.816Z,14892.00
2018-06-04T04:50:32.799Z,15884.00
2018-06-04T04:51:32.759Z,23808.00
2018-06-04T04:52:32.720Z,27424.00
2018-06-04T04:53:32.737Z,27360.00
2018-06-04T04:54:32.654Z,26976.00
2018-06-04T04:55:32.653Z,22304.00
2018-06-04T04:56:32.633Z,17428.00
2018-06-04T04:57:32.598Z,18368.00
2018-06-04T04:58:32.565Z,19168.00
2018-06-04T04:59:32.565Z,14872.00
2018-06-04T05:00:32.535Z,14672.00
2018-06-04T05:01:32.469Z,14816.00
2018-06-04T05:02:32.439Z,15160.00
2018-06-04T05:03:32.389Z,16340.00
2018-06-04T05:04:32.547Z,17000.00
2018-06-04T05:05:32.338Z,15280.00
2018-06-04T05:06:32.351Z,15196.00
2018-06-04T05:07:32.265Z,16708.00
2018-06-04T05:08:32.243Z,14488.00
2018-06-04T05:09:32.200Z,14204.00
2018-06-04T05:10:32.175Z,13852.00
2018-06-04T05:11:32.139Z,13592.00
2018-06-04T05:12:32.107Z,13264.00
2018-06-04T05:13:32.071Z,13036.00
2018-06-04T05:14:32.649Z,13200.00
2018-06-04T05:15:32.027Z,13444.00
2018-06-04T05:16:32.024Z,14084.00
2018-06-04T05:17:31.978Z,20672.00
2018-06-04T05:18:31.952Z,49664.00
2018-06-04T05:19:31.936Z,19136.00
2018-06-04T05:20:31.876Z,16356.00
2018-06-04T05:21:31.828Z,39680.00
2018-06-04T05:22:31.825Z,22528.00
2018-06-04T05:23:31.764Z,38976.00
2018-06-04T05:24:31.773Z,47200.00
2018-06-04T05:25:31.704Z,48544.00
2018-06-04T05:26:31.700Z,44000.00
2018-06-04T05:27:31.638Z,37408.00
2018-06-04T05:28:31.623Z,44416.00
2018-06-04T05:29:31.603Z,44352.00
2018-06-04T05:30:31.560Z,22688.00
2018-06-04T05:31:31.573Z,28576.00
2018-06-04T05:32:31.507Z,27872.00
2018-06-04T05:33:31.492Z,16988.00
2018-06-04T05:34:31.441Z,15852.00
2018-06-04T05:35:31.402Z,15132.00
2018-06-04T05:36:31.409Z,14688.00
2018-06-04T05:37:31.371Z,14456.00
2018-06-04T05:38:31.322Z,14544.00
2018-06-04T05:39:31.296Z,14640.00
2018-06-04T05:40:31.274Z,14980.00
2018-06-04T05:41:31.275Z,16184.00
2018-06-04T05:42:31.227Z,23392.00
2018-06-04T05:43:31.184Z,21024.00
2018-06-04T05:44:31.169Z,20896.00
2018-06-04T05:45:31.118Z,16428.00
2018-06-04T05:46:31.116Z,17452.00
2018-06-04T05:47:31.080Z,17284.00
2018-06-04T05:48:31.048Z,18936.00
2018-06-04T05:49:31.042Z,20416.00
2018-06-04T05:50:31.019Z,18808.00
2018-06-04T05:51:30.957Z,18444.00
2018-06-04T05:52:30.926Z,21408.00
2018-06-04T05:53:30.921Z,20096.00
2018-06-04T05:54:30.853Z,22688.00
2018-06-04T05:55:30.824Z,21792.00
2018-06-04T05:56:30.819Z,20736.00
2018-06-04T05:57:30.761Z,21280.00
2018-06-04T05:58:30.745Z,21312.00
2018-06-04T05:59:30.705Z,21824.00
2018-06-04T06:00:30.678Z,22112.00
2018-06-04T06:01:30.702Z,22496.00
2018-06-04T06:02:30.626Z,22112.00
2018-06-04T06:03:30.594Z,22944.00
2018-06-04T06:04:30.573Z,23872.00
2018-06-04T06:05:30.557Z,22880.00
2018-06-04T06:06:30.513Z,24672.00
2018-06-04T06:07:30.470Z,25984.00
2018-06-04T06:08:30.442Z,23904.00
2018-06-04T06:09:30.439Z,22752.00
2018-06-04T06:10:30.410Z,23776.00
2018-06-04T06:11:30.385Z,28192.00
2018-06-04T06:12:30.331Z,34432.00
2018-06-04T06:13:30.295Z,38432.00
2018-06-04T06:14:30.336Z,38496.00
2018-06-04T06:15:30.247Z,31360.00
2018-06-04T06:16:30.224Z,27712.00
2018-06-04T06:17:30.197Z,24384.00
2018-06-04T06:18:30.156Z,22368.00
2018-06-04T06:19:30.170Z,21728.00
2018-06-04T06:20:30.121Z,20672.00
2018-06-04T06:21:30.189Z,19356.00
2018-06-04T06:22:30.051Z,21632.00
2018-06-04T06:23:30.056Z,22048.00
2018-06-04T06:24:29.993Z,22208.00
2018-06-04T06:25:30.021Z,23808.00
2018-06-04T06:26:29.950Z,24224.00
2018-06-04T06:27:29.895Z,23200.00
2018-06-04T06:28:30.685Z,23168.00
2018-06-04T06:29:29.860Z,22528.00
2018-06-04T06:30:30.683Z,22048.00
2018-06-04T06:31:29.781Z,22240.00
2018-06-04T06:32:29.802Z,22528.00
2018-06-04T06:33:29.729Z,22752.00
2018-06-04T06:34:29.714Z,22592.00
2018-06-04T06:35:29.719Z,22560.00
2018-06-04T06:36:29.645Z,22624.00
2018-06-04T06:37:29.611Z,22944.00
2018-06-04T06:38:29.600Z,22976.00
2018-06-04T06:39:29.556Z,22944.00
2018-06-04T06:40:29.558Z,22688.00
2018-06-04T06:41:29.534Z,22528.00
2018-06-04T06:42:29.545Z,22208.00
2018-06-04T06:43:29.479Z,22272.00
2018-06-04T06:44:29.428Z,22432.00
2018-06-04T06:45:29.453Z,22656.00
2018-06-04T06:46:29.365Z,22944.00
2018-06-04T06:47:29.363Z,23872.00
2018-06-04T06:48:29.309Z,25568.00
2018-06-04T06:49:29.301Z,27264.00
2018-06-04T06:50:29.246Z,27456.00
2018-06-04T06:51:29.237Z,37088.00
2018-06-04T06:52:29.193Z,47680.00
2018-06-04T06:53:29.188Z,55040.00
2018-06-04T06:54:29.159Z,63424.00
2018-06-04T06:55:29.261Z,64480.00
2018-06-04T06:56:29.112Z,62368.00
2018-06-04T06:57:29.063Z,64000.00
2018-06-04T06:58:29.027Z,67744.00
2018-06-04T06:59:29.032Z,72832.00
2018-06-04T07:00:28.971Z,80960.00
2018-06-04T07:01:28.958Z,85024.00
2018-06-04T07:02:28.916Z,80512.00
2018-06-04T07:03:28.916Z,76672.00
2018-06-04T07:04:28.873Z,77312.00
2018-06-04T07:05:28.853Z,78112.00
2018-06-04T07:06:28.841Z,77984.00
2018-06-04T07:07:28.821Z,80224.00
2018-06-04T07:08:28.764Z,83488.00
2018-06-04T07:09:28.760Z,80768.00
2018-06-04T07:10:28.796Z,75392.00
2018-06-04T07:11:28.709Z,76864.00
2018-06-04T07:12:28.684Z,75328.00
2018-06-04T07:13:28.653Z,74976.00
2018-06-04T07:14:28.643Z,77664.00
2018-06-04T07:15:28.601Z,79360.00
2018-06-04T07:16:28.617Z,81632.00
2018-06-04T07:17:28.590Z,85504.00
2018-06-04T07:18:28.578Z,89696.00
2018-06-04T07:19:28.595Z,90240.00
2018-06-04T07:20:28.519Z,82368.00
2018-06-04T07:21:28.507Z,77088.00
2018-06-04T07:22:28.468Z,76864.00
2018-06-04T07:23:28.427Z,82176.00
2018-06-04T07:24:28.400Z,81408.00
2018-06-04T07:25:28.389Z,80448.00
2018-06-04T07:26:28.369Z,79520.00
2018-06-04T07:27:28.353Z,83552.00
2018-06-04T07:28:28.321Z,86272.00
2018-06-04T07:29:28.315Z,87040.00
2018-06-04T07:30:28.275Z,87712.00
2018-06-04T07:31:28.784Z,88064.00
2018-06-04T07:32:28.254Z,82464.00
2018-06-04T07:33:28.222Z,79136.00
2018-06-04T07:34:28.199Z,83712.00
2018-06-04T07:35:28.176Z,84480.00
2018-06-04T07:36:28.162Z,81248.00
2018-06-04T07:37:28.186Z,84864.00
2018-06-04T07:38:28.216Z,85888.00
2018-06-04T07:39:28.140Z,85632.00
2018-06-04T07:40:28.097Z,82176.00
2018-06-04T07:41:28.075Z,80512.00
2018-06-04T07:42:28.053Z,78720.00
2018-06-04T07:43:28.040Z,82272.00
2018-06-04T07:44:28.125Z,77568.00
2018-06-04T07:45:28.090Z,82592.00
2018-06-04T07:46:27.995Z,81024.00
2018-06-04T07:47:27.968Z,82304.00
2018-06-04T07:48:27.969Z,83968.00
2018-06-04T07:49:27.946Z,83232.00
2018-06-04T07:50:27.909Z,83520.00
2018-06-04T07:51:27.910Z,90720.00
2018-06-04T07:52:27.874Z,89600.00
2018-06-04T07:53:27.929Z,96032.00
2018-06-04T07:54:27.835Z,105472.00
2018-06-04T07:55:27.881Z,104640.00
2018-06-04T07:56:27.968Z,101440.00
2018-06-04T07:57:27.779Z,99008.00
2018-06-04T07:58:27.759Z,94368.00
2018-06-04T07:59:27.735Z,93664.00
2018-06-04T08:00:27.739Z,93824.00
2018-06-04T08:01:27.708Z,95008.00
2018-06-04T08:02:27.707Z,71520.00
2018-06-04T08:03:27.682Z,41472.00
2018-06-04T08:04:27.715Z,33376.00
2018-06-04T08:05:27.622Z,33984.00
2018-06-04T08:06:27.690Z,39584.00
2018-06-04T08:07:27.608Z,84608.00
2018-06-04T08:08:27.595Z,90304.00
2018-06-04T08:09:27.568Z,78080.00
2018-06-04T08:10:27.538Z,94240.00
2018-06-04T08:11:27.548Z,42368.00
2018-06-04T08:12:27.508Z,37184.00
2018-06-04T08:13:27.530Z,38368.00
2018-06-04T08:14:27.495Z,41312.00
2018-06-04T08:15:27.460Z,45792.00
2018-06-04T08:16:27.445Z,94176.00
2018-06-04T08:17:27.443Z,63616.00
2018-06-04T08:18:27.424Z,90048.00
2018-06-04T08:19:27.416Z,99872.00
2018-06-04T08:20:27.366Z,98976.00
2018-06-04T08:21:27.366Z,97600.00
2018-06-04T08:22:27.350Z,94720.00
2018-06-04T08:23:27.296Z,94976.00
2018-06-04T08:24:27.291Z,103968.00
2018-06-04T08:25:27.257Z,116032.00
2018-06-04T08:26:27.259Z,116768.00
2018-06-04T08:27:27.246Z,108320.00
2018-06-04T08:28:27.207Z,84096.00
2018-06-04T08:29:27.200Z,36384.00
2018-06-04T08:30:27.188Z,34400.00
2018-06-04T08:31:27.158Z,34624.00
2018-06-04T08:32:27.161Z,34464.00
2018-06-04T08:33:27.106Z,39360.00
2018-06-04T08:34:27.117Z,47424.00
2018-06-04T08:35:27.088Z,40544.00
2018-06-04T08:36:27.067Z,102016.00
2018-06-04T08:37:27.064Z,39616.00
2018-06-04T08:38:27.087Z,34912.00
2018-06-04T08:39:27.027Z,34976.00
2018-06-04T08:40:26.999Z,35776.00
2018-06-04T08:41:26.984Z,34304.00
2018-06-04T08:42:26.967Z,35392.00
2018-06-04T08:43:26.943Z,36832.00
2018-06-04T08:44:26.929Z,36800.00
2018-06-04T08:45:26.885Z,35968.00
2018-06-04T08:46:26.878Z,36096.00
2018-06-04T08:47:26.861Z,43872.00
2018-06-04T08:48:26.827Z,59296.00
2018-06-04T08:49:26.803Z,79424.00
2018-06-04T08:50:26.783Z,117344.00
2018-06-04T08:51:26.763Z,119648.00
2018-06-04T08:52:26.774Z,112256.00
2018-06-04T08:53:26.728Z,41760.00
2018-06-04T08:54:26.732Z,43136.00
2018-06-04T08:55:26.684Z,42688.00
2018-06-04T08:56:26.681Z,46720.00
2018-06-04T08:57:26.648Z,43584.00
2018-06-04T08:58:26.617Z,40448.00
2018-06-04T08:59:26.614Z,39584.00
2018-06-04T09:00:26.582Z,39232.00
2018-06-04T09:01:26.584Z,44128.00
2018-06-04T09:02:26.535Z,34368.00
2018-06-04T09:03:26.558Z,29984.00
2018-06-04T09:04:26.500Z,29088.00
2018-06-04T09:05:26.512Z,28256.00
2018-06-04T09:06:26.485Z,28672.00
2018-06-04T09:07:26.446Z,28864.00
2018-06-04T09:08:26.426Z,29184.00
2018-06-04T09:09:26.391Z,32256.00
2018-06-04T09:10:26.397Z,34304.00
2018-06-04T09:11:26.363Z,36064.00
2018-06-04T09:12:26.340Z,36000.00
2018-06-04T09:13:26.309Z,37408.00
2018-06-04T09:14:26.283Z,36288.00
2018-06-04T09:15:26.272Z,33472.00
2018-06-04T09:16:26.253Z,31616.00
2018-06-04T09:17:26.210Z,36384.00
2018-06-04T09:18:26.208Z,33184.00
2018-06-04T09:19:26.180Z,34112.00
2018-06-04T09:20:26.153Z,34912.00
2018-06-04T09:21:26.135Z,85280.00
2018-06-04T09:22:26.120Z,118560.00
2018-06-04T09:23:26.103Z,125248.00
2018-06-04T09:24:26.073Z,69280.00
2018-06-04T09:25:26.053Z,120160.00
2018-06-04T09:26:26.030Z,120480.00
2018-06-04T09:27:25.994Z,49600.00
2018-06-04T09:28:26.015Z,36416.00
2018-06-04T09:29:25.949Z,34368.00
2018-06-04T09:30:25.936Z,31360.00
2018-06-04T09:31:25.927Z,27872.00
2018-06-04T09:32:25.871Z,25600.00
2018-06-04T09:33:25.881Z,24608.00
2018-06-04T09:34:25.839Z,24480.00
2018-06-04T09:35:25.809Z,24256.00
2018-06-04T09:36:25.815Z,24928.00
2018-06-04T09:37:25.776Z,25856.00
2018-06-04T09:38:25.747Z,27040.00
2018-06-04T09:39:25.748Z,29184.00
2018-06-04T09:40:25.699Z,130880.00
2018-06-04T09:41:25.677Z,129408.00
2018-06-04T09:42:25.663Z,127200.00
2018-06-04T09:43:25.656Z,127840.00
2018-06-04T09:44:25.626Z,126656.00
2018-06-04T09:45:25.593Z,126944.00
2018-06-04T09:46:25.564Z,135712.00
2018-06-04T09:47:25.606Z,140064.00
2018-06-04T09:48:25.548Z,129056.00
2018-06-04T09:49:25.521Z,122688.00
2018-06-04T09:50:25.488Z,124704.00
2018-06-04T09:51:25.476Z,127200.00
2018-06-04T09:52:25.467Z,125184.00
2018-06-04T09:53:25.429Z,121664.00
2018-06-04T09:54:25.447Z,122816.00
2018-06-04T09:55:25.420Z,127360.00
2018-06-04T09:56:25.342Z,127104.00
2018-06-04T09:57:25.352Z,125664.00
2018-06-04T09:58:25.336Z,123456.00
2018-06-04T09:59:25.324Z,126272.00
2018-06-04T10:00:25.271Z,126944.00
2018-06-04T10:01:25.322Z,130528.00
2018-06-04T10:02:25.253Z,125696.00
2018-06-04T10:03:25.215Z,119680.00
2018-06-04T10:04:25.223Z,119904.00
2018-06-04T10:05:25.171Z,121632.00
2018-06-04T10:06:25.164Z,121600.00
2018-06-04T10:07:25.167Z,126432.00
2018-06-04T10:08:25.203Z,135488.00
2018-06-04T10:09:25.133Z,133568.00
2018-06-04T10:10:25.104Z,131552.00
2018-06-04T10:11:25.081Z,133184.00
2018-06-04T10:12:25.042Z,107232.00
2018-06-04T10:13:25.037Z,122528.00
2018-06-04T10:14:25.001Z,115392.00
2018-06-04T10:15:25.004Z,126336.00
2018-06-04T10:16:24.972Z,132000.00
2018-06-04T10:17:24.949Z,40640.00
2018-06-04T10:18:24.932Z,36096.00
2018-06-04T10:19:24.924Z,33504.00
2018-06-04T10:20:24.914Z,30496.00
2018-06-04T10:21:24.901Z,28896.00
2018-06-04T10:22:24.894Z,29728.00
2018-06-04T10:23:24.898Z,31648.00
2018-06-04T10:24:24.911Z,60256.00
2018-06-04T10:25:24.894Z,66560.00
2018-06-04T10:26:25.282Z,107456.00
2018-06-04T10:27:24.776Z,122720.00
2018-06-04T10:28:24.757Z,126496.00
2018-06-04T10:29:24.758Z,44480.00
2018-06-04T10:30:24.719Z,38976.00
2018-06-04T10:31:24.697Z,117600.00
2018-06-04T10:32:24.692Z,111008.00
2018-06-04T10:33:24.691Z,114016.00
2018-06-04T10:34:24.633Z,31328.00
2018-06-04T10:35:24.629Z,30016.00
2018-06-04T10:36:24.581Z,30880.00
2018-06-04T10:37:24.574Z,30688.00
2018-06-04T10:38:24.546Z,29888.00
2018-06-04T10:39:24.519Z,30272.00
2018-06-04T10:40:24.549Z,31104.00
2018-06-04T10:41:24.490Z,32736.00
2018-06-04T10:42:24.490Z,34208.00
2018-06-04T10:43:24.464Z,37664.00
2018-06-04T10:44:24.445Z,119392.00
2018-06-04T10:45:24.418Z,48896.00
2018-06-04T10:46:24.389Z,58880.00
2018-06-04T10:47:24.392Z,37344.00
2018-06-04T10:48:24.361Z,51840.00
2018-06-04T10:49:24.330Z,34528.00
2018-06-04T10:50:24.321Z,36256.00
2018-06-04T10:51:24.286Z,35072.00
2018-06-04T10:52:24.267Z,36064.00
2018-06-04T10:53:24.257Z,37184.00
2018-06-04T10:54:24.261Z,39808.00
2018-06-04T10:55:24.239Z,43360.00
2018-06-04T10:56:24.209Z,80640.00
2018-06-04T10:57:24.187Z,118688.00
2018-06-04T10:58:24.158Z,120672.00
2018-06-04T10:59:24.116Z,124960.00
2018-06-04T11:00:24.120Z,132320.00
2018-06-04T11:01:24.076Z,129792.00
2018-06-04T11:02:24.080Z,131136.00
2018-06-04T11:03:24.056Z,129408.00
2018-06-04T11:04:24.046Z,120768.00
2018-06-04T11:05:24.086Z,113984.00
2018-06-04T11:06:24.018Z,118336.00
2018-06-04T11:07:23.963Z,123072.00
2018-06-04T11:08:23.956Z,109216.00
2018-06-04T11:09:23.935Z,104192.00
2018-06-04T11:10:23.887Z,115552.00
2018-06-04T11:11:23.885Z,118752.00
2018-06-04T11:12:23.885Z,115744.00
2018-06-04T11:13:23.849Z,117344.00
2018-06-04T11:14:23.823Z,117312.00
2018-06-04T11:15:23.821Z,116512.00
2018-06-04T11:16:23.806Z,117504.00
2018-06-04T11:17:23.796Z,108160.00
2018-06-04T11:18:23.747Z,116352.00
2018-06-04T11:19:23.746Z,132736.00
2018-06-04T11:20:23.739Z,132000.00
2018-06-04T11:21:23.713Z,127168.00
2018-06-04T11:22:23.662Z,38240.00
2018-06-04T11:23:23.674Z,35936.00
2018-06-04T11:24:23.731Z,39104.00
2018-06-04T11:25:23.739Z,34336.00
2018-06-04T11:26:23.654Z,31520.00
2018-06-04T11:27:23.587Z,30496.00
2018-06-04T11:28:23.556Z,30688.00
2018-06-04T11:29:23.609Z,31392.00
2018-06-04T11:30:23.562Z,34112.00
2018-06-04T11:31:23.485Z,32800.00
2018-06-04T11:32:23.492Z,30592.00
2018-06-04T11:33:23.457Z,28480.00
2018-06-04T11:34:23.437Z,27136.00
2018-06-04T11:35:23.429Z,26976.00
2018-06-04T11:36:23.419Z,27072.00
2018-06-04T11:37:23.388Z,27296.00
2018-06-04T11:38:23.358Z,28352.00
2018-06-04T11:39:23.389Z,29632.00
2018-06-04T11:40:23.323Z,29952.00
2018-06-04T11:41:23.344Z,33568.00
2018-06-04T11:42:23.277Z,33920.00
2018-06-04T11:43:23.262Z,29088.00
2018-06-04T11:44:23.243Z,28736.00
2018-06-04T11:45:23.228Z,28864.00
2018-06-04T11:46:23.204Z,28896.00
2018-06-04T11:47:23.164Z,34688.00
2018-06-04T11:48:23.187Z,38400.00
2018-06-04T11:49:23.174Z,51904.00
2018-06-04T11:50:23.198Z,51872.00
2018-06-04T11:51:23.121Z,53760.00
2018-06-04T11:52:23.060Z,56224.00
2018-06-04T11:53:23.040Z,58144.00
2018-06-04T11:54:23.995Z,60544.00
2018-06-04T11:55:22.999Z,59680.00
2018-06-04T11:56:24.019Z,58496.00
2018-06-04T11:57:22.976Z,58816.00
2018-06-04T11:58:23.004Z,59360.00
2018-06-04T11:59:22.923Z,57440.00
2018-06-04T12:00:22.904Z,56256.00
2018-06-04T12:01:22.884Z,52000.00
2018-06-04T12:02:22.876Z,51488.00
2018-06-04T12:03:22.817Z,29952.00
2018-06-04T12:04:22.828Z,27968.00
2018-06-04T12:05:22.825Z,26400.00
2018-06-04T12:06:22.815Z,25504.00
2018-06-04T12:07:22.743Z,24480.00
2018-06-04T12:08:22.736Z,24128.00